createdAt,value
2018-05-26T00:03:41.668Z,23.60
2018-05-26T00:06:09.809Z,23.80
2018-05-26T00:08:37.078Z,23.90
2018-05-26T00:11:05.088Z,23.50
2018-05-26T00:13:32.590Z,22.80
2018-05-26T00:18:28.947Z,21.90
2018-05-26T00:23:25.182Z,22.30
2018-05-26T00:25:53.202Z,22.90
2018-05-26T00:28:21.279Z,23.30
2018-05-26T00:30:48.616Z,23.60
2018-05-26T00:33:16.213Z,23.80
2018-05-26T00:35:43.528Z,23.80
2018-05-26T00:38:10.854Z,22.90
2018-05-26T00:43:06.383Z,23.60
2018-05-26T00:45:34.467Z,23.60
2018-05-26T00:48:01.924Z,23.50
2018-05-26T00:52:57.510Z,22.50
2018-05-26T00:55:25.054Z,22.70
2018-05-26T00:57:52.702Z,23.10
2018-05-26T01:00:19.986Z,23.40
2018-05-26T01:02:47.255Z,23.10
2018-05-26T01:07:42.765Z,22.90
2018-05-26T01:10:10.872Z,23.30
2018-05-26T01:12:38.937Z,23.60
2018-05-26T01:15:06.946Z,23.80
2018-05-26T01:17:35.019Z,23.30
2018-05-26T01:20:02.287Z,22.60
2018-05-26T01:24:58.622Z,21.80
2018-05-26T01:27:25.939Z,22.00
2018-05-26T01:29:53.221Z,22.20
2018-05-26T01:32:21.267Z,22.60
2018-05-26T01:34:48.551Z,22.90
2018-05-26T01:37:15.886Z,23.20
2018-05-26T01:39:43.170Z,23.40
2018-05-26T01:42:10.496Z,23.50
2018-05-26T01:44:37.786Z,23.50
2018-05-26T01:52:01.547Z,23.60
2018-05-26T01:54:28.794Z,23.60
2018-05-26T01:56:56.127Z,23.40
2018-05-26T01:59:24.162Z,22.50
2018-05-26T02:04:19.663Z,21.90
2018-05-26T02:06:46.963Z,22.20
2018-05-26T02:11:42.598Z,23.00
2018-05-26T02:16:38.986Z,23.50
2018-05-26T02:19:06.283Z,23.50
2018-05-26T02:21:34.363Z,23.50
2018-05-26T02:24:01.639Z,23.50
2018-05-26T02:26:28.970Z,23.40
2018-05-26T02:31:25.261Z,22.70
2018-05-26T02:33:52.955Z,22.90
2018-05-26T02:36:20.246Z,22.90
2018-05-26T02:41:15.826Z,22.20
2018-05-26T02:43:43.862Z,21.90
2018-05-26T02:46:11.140Z,22.10
2018-05-26T02:48:38.458Z,22.40
2018-05-26T02:51:05.719Z,22.80
2018-05-26T02:53:33.851Z,23.10
2018-05-26T02:56:01.898Z,23.20
2018-05-26T02:58:29.985Z,23.20
2018-05-26T03:00:57.276Z,22.80
2018-05-26T03:03:25.303Z,22.60
2018-05-26T03:05:58.542Z,22.60
2018-05-26T03:08:31.784Z,22.80
2018-05-26T03:11:05.161Z,23.00
2018-05-26T03:13:38.527Z,23.10
2018-05-26T03:16:07.454Z,22.60
2018-05-26T03:21:03.815Z,21.60
2018-05-26T03:30:55.955Z,21.50
2018-05-26T03:35:51.515Z,21.90
2018-05-26T03:40:47.815Z,21.80
2018-05-26T03:43:15.971Z,21.40
2018-05-26T03:50:39.827Z,21.70
2018-05-26T03:55:47.679Z,21.70
2018-05-26T03:58:28.122Z,21.70
2018-05-26T04:03:24.495Z,22.20
2018-05-26T04:08:20.865Z,23.10
2018-05-26T04:15:44.645Z,23.80
2018-05-26T04:20:40.326Z,23.90
2018-05-26T04:23:07.599Z,23.60
2018-05-26T04:25:35.733Z,23.30
2018-05-26T04:28:03.145Z,23.30
2018-05-26T04:32:58.767Z,23.50
2018-05-26T04:35:26.136Z,23.40
2018-05-26T04:40:22.392Z,22.80
2018-05-26T04:42:50.438Z,22.60
2018-05-26T04:45:17.757Z,23.00
2018-05-26T04:50:14.198Z,23.40
2018-05-26T04:52:41.500Z,23.30
2018-05-26T04:55:09.542Z,23.10
2018-05-26T05:00:05.058Z,22.30
2018-05-26T05:02:33.088Z,22.20
2018-05-26T05:05:00.527Z,22.40
2018-05-26T05:09:57.026Z,22.20
2018-05-26T05:12:25.183Z,22.30
2018-05-26T05:14:53.199Z,22.20
2018-05-26T05:19:48.772Z,22.60
2018-05-26T05:22:16.098Z,22.70
2018-05-26T05:24:44.122Z,22.60
2018-05-26T05:27:12.146Z,22.40
2018-05-26T05:32:07.748Z,23.20
2018-05-26T05:37:03.299Z,22.90
2018-05-26T05:39:31.350Z,22.80
2018-05-26T05:44:26.986Z,23.20
2018-05-26T05:46:54.513Z,23.60
2018-05-26T05:49:22.589Z,23.90
2018-05-26T05:51:49.861Z,23.20
2018-05-26T06:04:10.123Z,23.90
2018-05-26T06:09:05.736Z,24.40
2018-05-26T06:11:33.033Z,24.50
2018-05-26T06:14:00.429Z,24.10
2018-05-26T06:18:56.734Z,23.80
2018-05-26T06:23:52.983Z,24.20
2018-05-26T06:26:20.358Z,24.40
2018-05-26T06:28:47.617Z,24.60
2018-05-26T06:33:43.299Z,25.10
2018-05-26T06:38:39.135Z,25.70
2018-05-26T06:41:07.186Z,26.20
2018-05-26T06:43:34.502Z,26.50
2018-05-26T06:46:01.800Z,26.30
2018-05-26T06:50:57.349Z,26.40
2018-05-26T06:53:25.399Z,26.70
2018-05-26T06:55:52.705Z,26.90
2018-05-26T06:58:20.009Z,26.70
2018-05-26T07:03:15.543Z,27.00
2018-05-26T07:05:43.566Z,26.80
2018-05-26T07:08:10.847Z,25.90
2018-05-26T07:10:38.175Z,26.10
2018-05-26T07:13:05.470Z,26.60
2018-05-26T07:15:33.573Z,26.70
2018-05-26T07:18:01.744Z,26.80
2018-05-26T07:20:29.156Z,26.60
2018-05-26T07:25:24.872Z,26.30
2018-05-26T07:27:53.178Z,26.60
2018-05-26T07:30:20.924Z,27.10
2018-05-26T07:32:48.228Z,27.50
2018-05-26T07:37:43.774Z,27.90
2018-05-26T07:40:11.304Z,28.10
2018-05-26T07:42:39.298Z,28.50
2018-05-26T07:47:34.918Z,28.40
2018-05-26T07:50:02.989Z,28.40
2018-05-26T07:52:31.024Z,28.70
2018-05-26T07:57:26.577Z,28.80
2018-05-26T07:59:53.931Z,28.70
2018-05-26T08:02:21.239Z,28.60
2018-05-26T08:09:45.793Z,28.30
2018-05-26T08:14:41.443Z,28.00
2018-05-26T08:17:09.525Z,28.20
2018-05-26T08:19:36.875Z,28.50
2018-05-26T08:22:05.374Z,28.80
2018-05-26T08:24:32.679Z,29.30
2018-05-26T08:27:00.835Z,29.40
2018-05-26T08:31:57.139Z,29.80
2018-05-26T08:34:24.476Z,30.00
2018-05-26T08:36:52.485Z,29.40
2018-05-26T08:39:19.818Z,29.20
2018-05-26T08:41:47.103Z,29.20
2018-05-26T08:44:14.434Z,29.70
2018-05-26T08:46:41.729Z,30.10
2018-05-26T08:49:09.056Z,29.90
2018-05-26T08:56:33.150Z,30.00
2018-05-26T08:59:00.440Z,30.40
2018-05-26T09:01:28.490Z,30.80
2018-05-26T09:03:55.871Z,31.30
2018-05-26T09:06:23.967Z,31.40
2018-05-26T09:11:19.659Z,30.80
2018-05-26T09:13:46.987Z,31.30
2018-05-26T09:16:14.314Z,31.60
2018-05-26T09:21:09.859Z,32.30
2018-05-26T09:23:37.906Z,32.50
2018-05-26T09:26:05.273Z,32.30
2018-05-26T09:28:32.571Z,32.30
2018-05-26T09:31:00.657Z,32.40
2018-05-26T09:33:28.716Z,32.00
2018-05-26T09:35:56.867Z,31.40
2018-05-26T09:49:08.647Z,32.60
2018-05-26T09:51:35.971Z,32.20
2018-05-26T09:54:09.271Z,32.20
2018-05-26T09:56:37.443Z,32.30
2018-05-26T09:59:09.406Z,32.50
2018-05-26T10:04:10.367Z,32.10
2018-05-26T10:06:37.680Z,32.00
2018-05-26T10:09:06.843Z,32.30
2018-05-26T10:11:34.954Z,32.60
2018-05-26T10:14:05.075Z,32.00
2018-05-26T10:16:37.530Z,31.70
2018-05-26T10:21:33.906Z,31.00
2018-05-26T10:24:01.351Z,30.90
2018-05-26T10:28:58.131Z,32.50
2018-05-26T10:31:27.235Z,32.70
2018-05-26T10:36:24.497Z,32.10
2018-05-26T10:38:54.566Z,31.90
2018-05-26T10:43:56.525Z,32.40
2018-05-26T10:48:52.039Z,33.40
2018-05-26T10:56:19.350Z,35.40
2018-05-26T10:58:49.242Z,35.00
2018-05-26T11:01:17.258Z,34.50
2018-05-26T11:06:19.661Z,34.10
2018-05-26T11:08:49.972Z,33.60
2018-05-26T11:11:17.498Z,33.10
2018-05-26T11:18:42.154Z,33.10
2018-05-26T11:23:40.525Z,33.40
2018-05-26T11:26:08.587Z,34.30
2018-05-26T11:28:36.615Z,34.90
2018-05-26T11:31:05.825Z,34.70
2018-05-26T11:36:01.166Z,33.90
2018-05-26T11:38:31.165Z,33.50
2018-05-26T11:43:37.290Z,34.40
2018-05-26T11:46:07.313Z,34.50
2018-05-26T11:48:34.806Z,34.80
2018-05-26T11:51:02.847Z,34.90
2018-05-26T11:53:34.275Z,35.20
2018-05-26T11:56:01.653Z,34.70
2018-05-26T11:58:30.859Z,34.40
2018-05-26T12:06:01.667Z,35.20
2018-05-26T12:08:30.622Z,35.40
2018-05-26T12:10:58.654Z,36.30
2018-05-26T12:13:26.647Z,36.70
2018-05-26T12:15:57.432Z,36.80
2018-05-26T12:18:25.581Z,36.80
2018-05-26T12:20:55.602Z,36.90
2018-05-26T12:23:23.605Z,36.90
2018-05-26T12:28:19.206Z,35.80
2018-05-26T12:30:46.549Z,35.50
2018-05-26T12:33:13.841Z,35.60
2018-05-26T12:35:42.947Z,35.70
2018-05-26T12:38:11.935Z,35.20
2018-05-26T12:40:39.393Z,34.90
2018-05-26T12:43:06.706Z,34.40
2018-05-26T12:45:34.848Z,34.30
2018-05-26T12:48:02.256Z,34.00
2018-05-26T12:50:32.213Z,33.90
2018-05-26T12:53:04.771Z,33.50
2018-05-26T12:55:32.050Z,32.20
2018-05-26T12:58:03.542Z,31.10
2018-05-26T13:00:32.650Z,30.90
2018-05-26T13:03:00.632Z,30.70
2018-05-26T13:05:28.651Z,31.40
2018-05-26T13:07:56.768Z,32.20
2018-05-26T13:10:25.787Z,32.50
2018-05-26T13:12:54.839Z,32.60
2018-05-26T13:15:24.677Z,32.60
2018-05-26T13:17:52.842Z,32.40
2018-05-26T13:20:20.842Z,32.30
2018-05-26T13:22:48.051Z,32.60
2018-05-26T13:25:15.260Z,32.80
2018-05-26T13:27:43.243Z,32.60
2018-05-26T13:30:11.255Z,32.00
2018-05-26T13:32:39.218Z,32.00
2018-05-26T13:35:06.467Z,31.60
2018-05-26T13:40:01.900Z,32.20
2018-05-26T13:42:29.918Z,32.00
2018-05-26T13:44:57.997Z,31.50
2018-05-26T13:52:23.256Z,32.50
2018-05-26T13:54:50.767Z,32.80
2018-05-26T13:57:18.357Z,32.80
2018-05-26T13:59:46.394Z,33.40
2018-05-26T14:02:13.766Z,33.70
2018-05-26T14:04:41.077Z,34.20
2018-05-26T14:09:36.667Z,33.50
2018-05-26T14:12:03.980Z,33.40
2018-05-26T14:14:32.335Z,33.50
2018-05-26T14:17:00.467Z,34.00
2018-05-26T14:19:27.808Z,34.60
2018-05-26T14:21:55.049Z,34.00
2018-05-26T14:24:23.105Z,33.00
2018-05-26T14:26:51.159Z,32.20
2018-05-26T14:29:19.366Z,32.00
2018-05-26T14:31:47.376Z,31.70
2018-05-26T14:36:43.060Z,31.50
2018-05-26T14:39:10.391Z,31.60
2018-05-26T14:41:38.524Z,31.20
2018-05-26T14:44:05.837Z,31.00
2018-05-26T14:46:33.427Z,30.80
2018-05-26T14:49:00.884Z,30.80
2018-05-26T14:53:57.229Z,30.30
2018-05-26T14:56:24.694Z,30.10
2018-05-26T14:58:51.971Z,29.80
2018-05-26T15:01:19.423Z,29.50
2018-05-26T15:03:47.542Z,29.90
2018-05-26T15:13:39.890Z,28.90
2018-05-26T15:16:08.038Z,28.60
2018-05-26T15:18:35.376Z,28.50
2018-05-26T15:21:03.387Z,28.60
2018-05-26T15:30:56.496Z,29.10
2018-05-26T15:35:52.018Z,28.70
2018-05-26T15:38:20.118Z,28.50
2018-05-26T15:40:48.280Z,28.50
2018-05-26T15:43:15.590Z,28.50
2018-05-26T15:45:43.039Z,28.90
2018-05-26T15:48:11.068Z,28.80
2018-05-26T15:50:38.437Z,28.70
2018-05-26T15:55:34.028Z,28.40
2018-05-26T15:58:02.354Z,28.00
2018-05-26T16:00:30.510Z,27.70
2018-05-26T16:05:26.067Z,27.30
2018-05-26T16:07:54.137Z,27.30
2018-05-26T16:10:21.442Z,27.20
2018-05-26T16:15:26.101Z,27.40
2018-05-26T16:17:54.171Z,27.30
2018-05-26T16:20:22.255Z,27.20
2018-05-26T16:22:49.530Z,27.20
2018-05-26T16:25:16.788Z,27.10
2018-05-26T16:27:44.120Z,27.10
2018-05-26T16:30:11.473Z,27.10
2018-05-26T16:32:38.824Z,27.10
2018-05-26T16:35:06.459Z,27.10
2018-05-26T16:37:34.471Z,27.10
2018-05-26T16:40:01.775Z,27.10
2018-05-26T16:42:29.050Z,27.20
2018-05-26T16:44:56.358Z,27.20
2018-05-26T16:47:23.648Z,27.20
2018-05-26T16:49:50.943Z,27.10
2018-05-26T16:52:19.023Z,27.00
2018-05-26T16:54:46.329Z,27.00
2018-05-26T16:59:41.798Z,27.10
2018-05-26T17:02:09.094Z,27.10
2018-05-26T17:09:33.595Z,27.00
2018-05-26T17:12:01.030Z,27.00
2018-05-26T17:16:56.615Z,27.20
2018-05-26T17:21:52.111Z,27.20
2018-05-26T17:24:20.145Z,27.20
2018-05-26T17:29:15.686Z,27.10
2018-05-26T17:34:11.286Z,26.90
2018-05-26T17:36:39.325Z,26.80
2018-05-26T17:41:34.989Z,26.80
2018-05-26T17:44:02.271Z,26.80
2018-05-26T17:46:29.570Z,26.80
2018-05-26T17:48:56.890Z,26.70
2018-05-26T17:51:24.895Z,26.70
2018-05-26T17:53:52.221Z,26.70
2018-05-26T17:56:19.555Z,26.70
2018-05-26T17:58:46.884Z,26.80
2018-05-26T18:01:14.947Z,26.80
2018-05-26T18:03:42.226Z,26.90
2018-05-26T18:08:38.111Z,26.80
2018-05-26T18:11:05.453Z,26.90
2018-05-26T18:13:32.734Z,26.90
2018-05-26T18:16:00.098Z,27.00
2018-05-26T18:20:55.725Z,27.10
2018-05-26T18:28:19.501Z,27.20
2018-05-26T18:33:15.102Z,27.30
2018-05-26T18:35:42.398Z,27.30
2018-05-26T18:38:09.706Z,27.30
2018-05-26T18:43:05.937Z,27.20
2018-05-26T18:45:33.194Z,27.20
2018-05-26T18:48:01.253Z,27.20
2018-05-26T18:50:29.254Z,27.20
2018-05-26T18:55:25.526Z,27.30
2018-05-26T18:57:53.557Z,27.30
2018-05-26T19:00:21.009Z,27.30
2018-05-26T19:02:48.274Z,27.30
2018-05-26T19:05:16.489Z,27.30
2018-05-26T19:10:11.984Z,27.30
2018-05-26T19:12:40.009Z,27.30
2018-05-26T19:15:08.047Z,27.30
2018-05-26T19:17:35.341Z,27.30
2018-05-26T19:22:30.863Z,27.30
2018-05-26T19:24:58.986Z,27.20
2018-05-26T19:27:26.286Z,27.20
2018-05-26T19:29:53.601Z,27.20
2018-05-26T19:32:20.869Z,27.00
2018-05-26T19:34:48.990Z,26.90
2018-05-26T19:37:16.384Z,27.00
2018-05-26T19:39:43.659Z,27.00
2018-05-26T19:42:11.915Z,26.80
2018-05-26T19:44:39.329Z,26.90
2018-05-26T19:47:17.652Z,26.90
2018-05-26T19:49:48.689Z,26.90
2018-05-26T19:54:52.197Z,26.90
2018-05-26T19:59:49.619Z,27.00
2018-05-26T20:02:17.782Z,27.10
2018-05-26T20:04:45.825Z,27.00
2018-05-26T20:07:13.917Z,27.00
2018-05-26T20:09:44.986Z,27.00
2018-05-26T20:12:32.195Z,27.00
2018-05-26T20:15:00.463Z,26.90
2018-05-26T20:17:30.603Z,26.90
2018-05-26T20:19:59.798Z,26.90
2018-05-26T20:22:35.426Z,27.00
2018-05-26T20:25:09.590Z,27.00
2018-05-26T20:27:48.500Z,26.90
2018-05-26T20:30:18.638Z,27.00
2018-05-26T20:32:51.521Z,27.00
2018-05-26T20:35:19.822Z,27.00
2018-05-26T20:37:52.862Z,27.10
2018-05-26T20:40:34.258Z,27.20
2018-05-26T20:43:10.083Z,27.10
2018-05-26T20:45:39.445Z,27.30
2018-05-26T20:48:14.582Z,27.20
2018-05-26T20:50:44.634Z,26.80
2018-05-26T20:53:11.910Z,27.00
2018-05-26T20:55:46.614Z,26.70
2018-05-26T20:58:14.876Z,26.70
2018-05-26T21:00:44.866Z,26.70
2018-05-26T21:03:17.602Z,26.50
2018-05-26T21:05:46.558Z,26.30
2018-05-26T21:08:19.275Z,26.10
2018-05-26T21:10:46.618Z,26.40
2018-05-26T21:13:13.933Z,26.80
2018-05-26T21:15:47.125Z,27.10
2018-05-26T21:18:23.059Z,27.20
2018-05-26T21:20:51.175Z,27.20
2018-05-26T21:23:20.397Z,27.10
2018-05-26T21:25:47.698Z,26.90
2018-05-26T21:28:16.902Z,26.80
2018-05-26T21:30:44.257Z,27.10
2018-05-26T21:33:20.794Z,27.20
2018-05-26T21:35:49.462Z,27.30
2018-05-26T21:38:16.803Z,27.40
2018-05-26T21:40:45.944Z,27.40
2018-05-26T21:43:13.274Z,27.40
2018-05-26T21:45:46.058Z,27.40
2018-05-26T21:48:15.006Z,27.30
2018-05-26T21:50:45.215Z,27.30
2018-05-26T21:53:14.339Z,27.10
2018-05-26T21:55:47.399Z,27.00
2018-05-26T21:58:23.683Z,26.70
2018-05-26T22:00:57.457Z,26.20
2018-05-26T22:03:24.875Z,26.20
2018-05-26T22:05:53.716Z,26.10
2018-05-26T22:08:24.731Z,26.00
2018-05-26T22:10:56.227Z,25.90
2018-05-26T22:13:27.179Z,26.10
2018-05-26T22:15:58.883Z,26.30
2018-05-26T22:18:28.295Z,26.50
2018-05-26T22:20:57.450Z,26.60
2018-05-26T22:23:28.263Z,26.60
2018-05-26T22:25:59.126Z,26.60
2018-05-26T22:28:27.247Z,26.50
2018-05-26T22:30:54.682Z,26.50
2018-05-26T22:33:23.792Z,26.40
2018-05-26T22:35:51.162Z,26.30
2018-05-26T22:38:20.142Z,26.30
2018-05-26T22:40:47.480Z,26.60
2018-05-26T22:43:14.796Z,26.60
2018-05-26T22:45:42.120Z,26.50
2018-05-26T22:48:09.400Z,26.50
2018-05-26T22:50:36.774Z,26.50
2018-05-26T22:53:04.038Z,26.40
2018-05-26T22:55:32.047Z,25.90
2018-05-26T22:57:59.314Z,25.70
2018-05-26T23:00:26.554Z,25.70
2018-05-26T23:05:22.793Z,25.60
2018-05-26T23:07:50.084Z,25.70
2018-05-26T23:10:17.386Z,25.60
2018-05-26T23:12:44.741Z,25.80
2018-05-26T23:20:08.495Z,26.00
2018-05-26T23:25:03.970Z,25.50
2018-05-26T23:27:31.259Z,25.20
2018-05-26T23:34:54.970Z,25.50
2018-05-26T23:42:18.742Z,25.90
2018-05-26T23:44:46.182Z,25.90
2018-05-26T23:49:41.716Z,25.30
2018-05-26T23:52:09.750Z,25.40
2018-05-26T23:57:05.284Z,25.10
2018-05-26T23:59:32.581Z,24.80
